Janie — WDD4142 — position and weather

sailwx.info

Track history (hours):
 
Tides and Currents Weather Stations Pressure Air Temp Water Temp Dewpoint Dewpoint Depression Visibility Wind Speed Wind Dir Waves Ship Positions

Janie

Owner: Offshore Liftboats, LLC, Cut Off, LA. More information available from US FCC via Universal Licensing System and Coast Guard Vessel Documentation Center.

Last reported at 2016-Jun-18 09:26 UTC. Time now 2016-Jun-30 23:10 UTC.
Position N 29°41' W 093°15'.
Warning: this ship's position is 12 days out of date.

Length 38 m; draft 2.7 m.

Type: Ship. MMSI: 367140730.

Date/timePositionNaut miles runAvg speedWind from/ knotsBaromVisibWave heightAir tempDewpointWater temp
2016-Jun-18 09:26N 29°41' W 093°15'4 5.0
2016-Jun-18 08:33N 29°43' W 093°19'4 3.7
2016-Jun-18 07:33N 29°46' W 093°21'1 0.8
2016-Jun-18 06:33N 29°47' W 093°20'0 0.0
2016-Jun-18 04:23N 29°47' W 093°20'0 0.0
2016-Jun-18 03:33N 29°47' W 093°20'0 0.0
2016-Jun-18 02:33N 29°47' W 093°20'0 0.1
2016-Jun-18 01:33N 29°47' W 093°20'1 1.4
2016-Jun-18 00:31N 29°45' W 093°21'1 1.4
2016-Jun-17 23:32N 29°44' W 093°20'3 3.1
2016-Jun-17 22:33N 29°41' W 093°21'5 4.4
2016-Jun-17 21:23N 29°36' W 093°23'5 4.2
2016-Jun-17 20:10N 29°31' W 093°24'6 2.0
2016-Jun-17 17:08N 29°25' W 093°24'1 1.2
2016-Jun-17 16:33N 29°24' W 093°24'0 0.0
2016-Jun-17 15:33N 29°24' W 093°24'0 0.0
2016-Jun-17 14:33N 29°24' W 093°24'0 0.0
2016-Jun-17 13:33N 29°24' W 093°24'0 0.0
2016-Jun-17 12:30N 29°24' W 093°24'0 0.0
2016-Jun-17 11:33N 29°24' W 093°24'0 0.0
2016-Jun-17 10:30N 29°24' W 093°24'0 0.0
2016-Jun-17 09:30N 29°24' W 093°24'0 0.0
2016-Jun-17 08:33N 29°24' W 093°24'0 0.0
2016-Jun-17 07:29N 29°24' W 093°24'0 0.0
2016-Jun-17 06:33N 29°24' W 093°24'0 0.0
2016-Jun-17 05:21N 29°24' W 093°24'0 0.0
2016-Jun-17 04:32N 29°24' W 093°24'0 0.0
2016-Jun-17 03:33N 29°24' W 093°24'0 0.0
2016-Jun-17 02:32N 29°24' W 093°24'0 0.0
2016-Jun-17 01:33N 29°24' W 093°24'0 0.0
2016-Jun-17 00:33N 29°24' W 093°24'0 0.0
2016-Jun-16 23:33N 29°24' W 093°24'0 0.0
2016-Jun-16 22:33N 29°24' W 093°24'0 0.0
2016-Jun-16 21:33N 29°24' W 093°24'0 0.0
2016-Jun-16 20:33N 29°24' W 093°24'0 0.0
2016-Jun-16 19:33N 29°24' W 093°24'0 0.0
2016-Jun-16 18:33N 29°24' W 093°24'0 0.0
2016-Jun-16 17:33N 29°24' W 093°24'0 0.0
2016-Jun-16 16:33N 29°24' W 093°24'0 0.0
2016-Jun-16 15:33N 29°24' W 093°24'0 0.0
2016-Jun-16 14:33N 29°24' W 093°24'0 0.0
2016-Jun-16 13:33N 29°24' W 093°24'0 0.0
2016-Jun-16 12:32N 29°24' W 093°24'0 0.0
2016-Jun-16 11:32N 29°24' W 093°24'0 0.0
2016-Jun-16 10:33N 29°24' W 093°24'0 0.0
2016-Jun-16 09:30N 29°24' W 093°24'0 0.0
2016-Jun-16 08:32N 29°24' W 093°24'0 0.0
2016-Jun-16 07:30N 29°24' W 093°24'0 0.0
2016-Jun-16 06:30N 29°24' W 093°24'0 0.0
2016-Jun-16 05:32N 29°24' W 093°24'0 0.0
2016-Jun-16 04:32N 29°24' W 093°24'0 0.0
2016-Jun-16 03:33N 29°24' W 093°24'0 0.0
2016-Jun-16 02:33N 29°24' W 093°24'0 0.0
2016-Jun-16 01:28N 29°24' W 093°24'0 0.0
2016-Jun-16 00:31N 29°24' W 093°24'0 0.0
2016-Jun-15 23:33N 29°24' W 093°24'0 0.0
2016-Jun-15 22:33N 29°24' W 093°24'0 0.0
2016-Jun-15 21:33N 29°24' W 093°24'0 0.0
2016-Jun-15 20:33N 29°24' W 093°24'0 0.0
2016-Jun-15 19:31N 29°24' W 093°24'0 0.0
2016-Jun-15 18:33N 29°24' W 093°24'0 0.0
2016-Jun-15 17:33N 29°24' W 093°24'0 0.0
2016-Jun-15 16:33N 29°24' W 093°24'0 0.0
2016-Jun-15 15:33N 29°24' W 093°24'0 0.0
2016-Jun-15 14:33N 29°24' W 093°24'0 0.0
2016-Jun-15 13:32N 29°24' W 093°24'0 0.0
2016-Jun-15 12:33N 29°24' W 093°24'0 0.0
2016-Jun-15 11:32N 29°24' W 093°24'0 0.0
2016-Jun-15 10:33N 29°24' W 093°24'0 0.0
2016-Jun-15 09:14N 29°24' W 093°24'0 0.0
2016-Jun-15 07:27N 29°24' W 093°24'0 0.0
2016-Jun-15 06:25N 29°24' W 093°24'0 0.0
2016-Jun-15 04:33N 29°24' W 093°24'0 0.0
2016-Jun-15 03:33N 29°24' W 093°24'0 0.0
2016-Jun-15 02:31N 29°24' W 093°24'0 0.0
2016-Jun-15 01:32N 29°24' W 093°24'0 0.0
2016-Jun-15 00:33N 29°24' W 093°24'0 0.0
2016-Jun-14 23:32N 29°24' W 093°24'0 0.0
2016-Jun-14 22:32N 29°24' W 093°24'0 0.0
2016-Jun-14 21:30N 29°24' W 093°24'0 0.0
2016-Jun-14 20:33N 29°24' W 093°24'0 0.0
2016-Jun-14 19:33N 29°24' W 093°24'0 0.0
2016-Jun-14 18:33N 29°24' W 093°24'0 0.0
2016-Jun-14 17:32N 29°24' W 093°24'0 0.0
2016-Jun-14 16:33N 29°24' W 093°24'0 0.0
2016-Jun-14 15:31N 29°24' W 093°24'0 0.0
2016-Jun-14 14:33N 29°24' W 093°24'0 0.0
2016-Jun-14 13:33N 29°24' W 093°24'0 0.0
2016-Jun-14 12:28N 29°24' W 093°24'0 0.0
2016-Jun-14 11:32N 29°24' W 093°24'0 0.0
2016-Jun-14 10:22N 29°24' W 093°24'0 0.0
2016-Jun-14 09:33N 29°24' W 093°24'0 0.0
2016-Jun-14 08:33N 29°24' W 093°24'0 0.0
2016-Jun-14 07:33N 29°24' W 093°24'0 0.0
2016-Jun-14 05:33N 29°24' W 093°24'0 0.0
2016-Jun-14 04:26N 29°24' W 093°24'0 0.0
2016-Jun-14 03:28N 29°24' W 093°24'0 0.0
2016-Jun-14 02:33N 29°24' W 093°24'0 0.0
2016-Jun-14 01:33N 29°24' W 093°24'0 0.0
2016-Jun-14 00:33N 29°24' W 093°24'0 0.0
2016-Jun-13 23:33N 29°24' W 093°24'0 0.0
2016-Jun-13 22:33N 29°24' W 093°24'0 0.0
2016-Jun-13 21:33N 29°24' W 093°24'0 0.0
2016-Jun-13 20:34N 29°24' W 093°24'0 0.0
2016-Jun-13 19:33N 29°24' W 093°24'0 0.0
2016-Jun-13 18:33N 29°24' W 093°24'0 0.0
2016-Jun-13 17:33N 29°24' W 093°24'0 0.0
2016-Jun-13 16:32N 29°24' W 093°24'0 0.0
2016-Jun-13 15:33N 29°24' W 093°24'0 0.0
2016-Jun-13 14:33N 29°24' W 093°24'0 0.0
2016-Jun-13 13:32N 29°24' W 093°24'0 0.0
2016-Jun-13 12:31N 29°24' W 093°24'0 0.0
2016-Jun-13 11:33N 29°24' W 093°24'0 0.0
2016-Jun-13 10:33N 29°24' W 093°24'0 0.0
2016-Jun-13 09:33N 29°24' W 093°24'0 0.0
2016-Jun-13 08:33N 29°24' W 093°24'0 0.0
2016-Jun-13 07:33N 29°24' W 093°24'0 0.0
2016-Jun-13 06:33N 29°24' W 093°24'0 0.0
2016-Jun-13 05:33N 29°24' W 093°24'0 0.0
2016-Jun-13 04:33N 29°24' W 093°24'0 0.0
2016-Jun-13 03:33N 29°24' W 093°24'0 0.0
2016-Jun-13 02:33N 29°24' W 093°24'0 0.0
2016-Jun-13 01:33N 29°24' W 093°24'0 0.0
2016-Jun-13 00:31N 29°24' W 093°24'0 0.0
2016-Jun-12 23:32N 29°24' W 093°24'0 0.0
2016-Jun-12 22:33N 29°24' W 093°24'0 0.0
2016-Jun-12 21:30N 29°24' W 093°24'0 0.0
2016-Jun-12 20:30N 29°24' W 093°24'0 0.0
2016-Jun-12 19:33N 29°24' W 093°24'0 0.0
2016-Jun-12 18:29N 29°24' W 093°24'0 0.0
2016-Jun-12 17:32N 29°24' W 093°24'0 0.0
2016-Jun-12 16:32N 29°24' W 093°24'0 0.0
2016-Jun-12 15:33N 29°24' W 093°24'0 0.0
2016-Jun-12 14:33N 29°24' W 093°24'0 0.0
2016-Jun-12 13:33N 29°24' W 093°24'0 0.0
2016-Jun-12 12:33N 29°24' W 093°24'0 0.0
2016-Jun-12 11:27N 29°24' W 093°24'0 0.0
2016-Jun-12 10:33N 29°24' W 093°24'0 0.0
2016-Jun-12 09:32N 29°24' W 093°24'0 0.0
2016-Jun-12 08:33N 29°24' W 093°24'0 0.0
2016-Jun-12 07:33N 29°24' W 093°24'0 0.0
2016-Jun-12 06:33N 29°24' W 093°24'0 0.0
2016-Jun-12 04:33N 29°24' W 093°24'0 0.0
2016-Jun-12 03:33N 29°24' W 093°24'0 0.0
2016-Jun-12 02:33N 29°24' W 093°24'0 0.0
2016-Jun-12 01:33N 29°24' W 093°24'0 0.0
2016-Jun-12 00:33N 29°24' W 093°24'0 0.0
2016-Jun-11 23:33N 29°24' W 093°24'0 0.0
2016-Jun-11 22:33N 29°24' W 093°24'0 0.0
2016-Jun-11 21:31N 29°24' W 093°24'0 0.0
2016-Jun-11 20:30N 29°24' W 093°24'0 0.0
2016-Jun-11 19:31N 29°24' W 093°24'0 0.0
2016-Jun-11 19:00N 29°24' W 093°24'0 0.0
2016-Jun-11 18:33N 29°24' W 093°24'0 0.0
2016-Jun-11 17:33N 29°24' W 093°24'0 0.0
2016-Jun-11 16:33N 29°24' W 093°24'0 0.0
2016-Jun-11 15:33N 29°24' W 093°24'0 0.0
2016-Jun-11 14:29N 29°24' W 093°24'0 0.0
2016-Jun-11 13:33N 29°24' W 093°24'0 0.0
2016-Jun-11 12:33N 29°24' W 093°24'0 0.0
2016-Jun-11 11:32N 29°24' W 093°24'0 0.0
2016-Jun-11 10:33N 29°24' W 093°24'0 0.0
2016-Jun-11 09:33N 29°24' W 093°24'0 0.0
2016-Jun-11 08:31N 29°24' W 093°24'0 0.0
2016-Jun-11 07:32N 29°24' W 093°24'0 0.0
2016-Jun-11 06:31N 29°24' W 093°24'0 0.0
2016-Jun-11 05:31N 29°24' W 093°24'0 0.0
2016-Jun-11 04:33N 29°24' W 093°24'0 0.0
2016-Jun-11 03:33N 29°24' W 093°24'0 0.0
2016-Jun-11 02:33N 29°24' W 093°24'0 0.0
2016-Jun-11 01:33N 29°24' W 093°24'0 0.0
2016-Jun-11 00:33N 29°24' W 093°24'0 0.0
2016-Jun-10 23:33N 29°24' W 093°24'0 0.0
2016-Jun-10 22:33N 29°24' W 093°24'0 0.0
2016-Jun-10 21:30N 29°24' W 093°24'0 0.0
2016-Jun-10 20:33N 29°24' W 093°24'0 0.0
2016-Jun-10 19:33N 29°24' W 093°24'0 0.0
2016-Jun-10 18:33N 29°24' W 093°24'0 0.0
2016-Jun-10 17:33N 29°24' W 093°24'0 0.0
2016-Jun-10 16:32N 29°24' W 093°24'0 0.0
2016-Jun-10 15:32N 29°24' W 093°24'0 0.0
2016-Jun-10 14:33N 29°24' W 093°24'0 0.0
2016-Jun-10 13:33N 29°24' W 093°24'0 0.0
2016-Jun-10 12:33N 29°24' W 093°24'0 0.0
2016-Jun-10 11:31N 29°24' W 093°24'0 0.0
2016-Jun-10 10:32N 29°24' W 093°24'0 0.0
2016-Jun-10 09:33N 29°24' W 093°24'0 0.0
2016-Jun-10 08:33N 29°24' W 093°24'0 0.0
2016-Jun-10 07:33N 29°24' W 093°24'0 0.0
2016-Jun-10 06:33N 29°24' W 093°24'0 0.0
2016-Jun-10 05:33N 29°24' W 093°24'0 0.0
2016-Jun-10 04:33N 29°24' W 093°24'0 0.0
2016-Jun-10 03:33N 29°24' W 093°24'0 0.0
2016-Jun-10 02:33N 29°24' W 093°24'0 0.0
2016-Jun-10 01:32N 29°24' W 093°24'0 0.0
2016-Jun-10 00:33N 29°24' W 093°24'0 0.0
2016-Jun-09 23:32N 29°24' W 093°24'0 0.0
2016-Jun-09 22:33N 29°24' W 093°24'0 0.0
2016-Jun-09 21:33N 29°24' W 093°24'0 0.0
2016-Jun-09 20:33N 29°24' W 093°24'0 0.0
2016-Jun-09 19:33N 29°24' W 093°24'0 0.0
2016-Jun-09 18:34N 29°24' W 093°24'0 0.0
2016-Jun-09 17:32N 29°24' W 093°24'0 0.0
2016-Jun-09 16:33N 29°24' W 093°24'0 0.0
2016-Jun-08 14:33N 29°24' W 093°24'0 0.0
2016-Jun-08 13:33N 29°24' W 093°24'0 0.0
2016-Jun-08 12:33N 29°24' W 093°24'0 0.0
2016-Jun-08 11:32N 29°24' W 093°24'0 0.0
2016-Jun-08 10:31N 29°24' W 093°24'0 0.0
2016-Jun-08 09:33N 29°24' W 093°24'  
Track history (hours):
 
Tides and Currents Weather Stations Pressure Air Temp Water Temp Dewpoint Dewpoint Depression Visibility Wind Speed Wind Dir Waves Ship Positions

Janie

Owner: Offshore Liftboats, LLC, Cut Off, LA. More information available from US FCC via Universal Licensing System and Coast Guard Vessel Documentation Center.

Last reported at 2016-Jun-18 09:26 UTC. Time now 2016-Jun-30 23:10 UTC.
Position N 29°41' W 093°15'.
Warning: this ship's position is 12 days out of date.

Length 38 m; draft 2.7 m.

Type: Ship. MMSI: 367140730.

Date/timePositionNaut miles runAvg speedWind from/ knotsBaromVisibWave heightAir tempDewpointWater temp
2016-Jun-18 09:26N 29°41' W 093°15'4 5.0
2016-Jun-18 08:33N 29°43' W 093°19'4 3.7
2016-Jun-18 07:33N 29°46' W 093°21'1 0.8
2016-Jun-18 06:33N 29°47' W 093°20'0 0.0
2016-Jun-18 04:23N 29°47' W 093°20'0 0.0
2016-Jun-18 03:33N 29°47' W 093°20'0 0.0
2016-Jun-18 02:33N 29°47' W 093°20'0 0.1
2016-Jun-18 01:33N 29°47' W 093°20'1 1.4
2016-Jun-18 00:31N 29°45' W 093°21'1 1.4
2016-Jun-17 23:32N 29°44' W 093°20'3 3.1
2016-Jun-17 22:33N 29°41' W 093°21'5 4.4
2016-Jun-17 21:23N 29°36' W 093°23'5 4.2
2016-Jun-17 20:10N 29°31' W 093°24'6 2.0
2016-Jun-17 17:08N 29°25' W 093°24'1 1.2
2016-Jun-17 16:33N 29°24' W 093°24'0 0.0
2016-Jun-17 15:33N 29°24' W 093°24'0 0.0
2016-Jun-17 14:33N 29°24' W 093°24'0 0.0
2016-Jun-17 13:33N 29°24' W 093°24'0 0.0
2016-Jun-17 12:30N 29°24' W 093°24'0 0.0
2016-Jun-17 11:33N 29°24' W 093°24'0 0.0
2016-Jun-17 10:30N 29°24' W 093°24'0 0.0
2016-Jun-17 09:30N 29°24' W 093°24'0 0.0
2016-Jun-17 08:33N 29°24' W 093°24'0 0.0
2016-Jun-17 07:29N 29°24' W 093°24'0 0.0
2016-Jun-17 06:33N 29°24' W 093°24'0 0.0
2016-Jun-17 05:21N 29°24' W 093°24'0 0.0
2016-Jun-17 04:32N 29°24' W 093°24'0 0.0
2016-Jun-17 03:33N 29°24' W 093°24'0 0.0
2016-Jun-17 02:32N 29°24' W 093°24'0 0.0
2016-Jun-17 01:33N 29°24' W 093°24'0 0.0
2016-Jun-17 00:33N 29°24' W 093°24'0 0.0
2016-Jun-16 23:33N 29°24' W 093°24'0 0.0
2016-Jun-16 22:33N 29°24' W 093°24'0 0.0
2016-Jun-16 21:33N 29°24' W 093°24'0 0.0
2016-Jun-16 20:33N 29°24' W 093°24'0 0.0
2016-Jun-16 19:33N 29°24' W 093°24'0 0.0
2016-Jun-16 18:33N 29°24' W 093°24'0 0.0
2016-Jun-16 17:33N 29°24' W 093°24'0 0.0
2016-Jun-16 16:33N 29°24' W 093°24'0 0.0
2016-Jun-16 15:33N 29°24' W 093°24'0 0.0
2016-Jun-16 14:33N 29°24' W 093°24'0 0.0
2016-Jun-16 13:33N 29°24' W 093°24'0 0.0
2016-Jun-16 12:32N 29°24' W 093°24'0 0.0
2016-Jun-16 11:32N 29°24' W 093°24'0 0.0
2016-Jun-16 10:33N 29°24' W 093°24'0 0.0
2016-Jun-16 09:30N 29°24' W 093°24'0 0.0
2016-Jun-16 08:32N 29°24' W 093°24'0 0.0
2016-Jun-16 07:30N 29°24' W 093°24'0 0.0
2016-Jun-16 06:30N 29°24' W 093°24'0 0.0
2016-Jun-16 05:32N 29°24' W 093°24'0 0.0
2016-Jun-16 04:32N 29°24' W 093°24'0 0.0
2016-Jun-16 03:33N 29°24' W 093°24'0 0.0
2016-Jun-16 02:33N 29°24' W 093°24'0 0.0
2016-Jun-16 01:28N 29°24' W 093°24'0 0.0
2016-Jun-16 00:31N 29°24' W 093°24'0 0.0
2016-Jun-15 23:33N 29°24' W 093°24'0 0.0
2016-Jun-15 22:33N 29°24' W 093°24'0 0.0
2016-Jun-15 21:33N 29°24' W 093°24'0 0.0
2016-Jun-15 20:33N 29°24' W 093°24'0 0.0
2016-Jun-15 19:31N 29°24' W 093°24'0 0.0
2016-Jun-15 18:33N 29°24' W 093°24'0 0.0
2016-Jun-15 17:33N 29°24' W 093°24'0 0.0
2016-Jun-15 16:33N 29°24' W 093°24'0 0.0
2016-Jun-15 15:33N 29°24' W 093°24'0 0.0
2016-Jun-15 14:33N 29°24' W 093°24'0 0.0
2016-Jun-15 13:32N 29°24' W 093°24'0 0.0
2016-Jun-15 12:33N 29°24' W 093°24'0 0.0
2016-Jun-15 11:32N 29°24' W 093°24'0 0.0
2016-Jun-15 10:33N 29°24' W 093°24'0 0.0
2016-Jun-15 09:14N 29°24' W 093°24'0 0.0
2016-Jun-15 07:27N 29°24' W 093°24'0 0.0
2016-Jun-15 06:25N 29°24' W 093°24'0 0.0
2016-Jun-15 04:33N 29°24' W 093°24'0 0.0
2016-Jun-15 03:33N 29°24' W 093°24'0 0.0
2016-Jun-15 02:31N 29°24' W 093°24'0 0.0
2016-Jun-15 01:32N 29°24' W 093°24'0 0.0
2016-Jun-15 00:33N 29°24' W 093°24'0 0.0
2016-Jun-14 23:32N 29°24' W 093°24'0 0.0
2016-Jun-14 22:32N 29°24' W 093°24'0 0.0
2016-Jun-14 21:30N 29°24' W 093°24'0 0.0
2016-Jun-14 20:33N 29°24' W 093°24'0 0.0
2016-Jun-14 19:33N 29°24' W 093°24'0 0.0
2016-Jun-14 18:33N 29°24' W 093°24'0 0.0
2016-Jun-14 17:32N 29°24' W 093°24'0 0.0
2016-Jun-14 16:33N 29°24' W 093°24'0 0.0
2016-Jun-14 15:31N 29°24' W 093°24'0 0.0
2016-Jun-14 14:33N 29°24' W 093°24'0 0.0
2016-Jun-14 13:33N 29°24' W 093°24'0 0.0
2016-Jun-14 12:28N 29°24' W 093°24'0 0.0
2016-Jun-14 11:32N 29°24' W 093°24'0 0.0
2016-Jun-14 10:22N 29°24' W 093°24'0 0.0
2016-Jun-14 09:33N 29°24' W 093°24'0 0.0
2016-Jun-14 08:33N 29°24' W 093°24'0 0.0
2016-Jun-14 07:33N 29°24' W 093°24'0 0.0
2016-Jun-14 05:33N 29°24' W 093°24'0 0.0
2016-Jun-14 04:26N 29°24' W 093°24'0 0.0
2016-Jun-14 03:28N 29°24' W 093°24'0 0.0
2016-Jun-14 02:33N 29°24' W 093°24'0 0.0
2016-Jun-14 01:33N 29°24' W 093°24'0 0.0
2016-Jun-14 00:33N 29°24' W 093°24'0 0.0
2016-Jun-13 23:33N 29°24' W 093°24'0 0.0
2016-Jun-13 22:33N 29°24' W 093°24'0 0.0
2016-Jun-13 21:33N 29°24' W 093°24'0 0.0
2016-Jun-13 20:34N 29°24' W 093°24'0 0.0
2016-Jun-13 19:33N 29°24' W 093°24'0 0.0
2016-Jun-13 18:33N 29°24' W 093°24'0 0.0
2016-Jun-13 17:33N 29°24' W 093°24'0 0.0
2016-Jun-13 16:32N 29°24' W 093°24'0 0.0
2016-Jun-13 15:33N 29°24' W 093°24'0 0.0
2016-Jun-13 14:33N 29°24' W 093°24'0 0.0
2016-Jun-13 13:32N 29°24' W 093°24'0 0.0
2016-Jun-13 12:31N 29°24' W 093°24'0 0.0
2016-Jun-13 11:33N 29°24' W 093°24'0 0.0
2016-Jun-13 10:33N 29°24' W 093°24'0 0.0
2016-Jun-13 09:33N 29°24' W 093°24'0 0.0
2016-Jun-13 08:33N 29°24' W 093°24'0 0.0
2016-Jun-13 07:33N 29°24' W 093°24'0 0.0
2016-Jun-13 06:33N 29°24' W 093°24'0 0.0
2016-Jun-13 05:33N 29°24' W 093°24'0 0.0
2016-Jun-13 04:33N 29°24' W 093°24'0 0.0
2016-Jun-13 03:33N 29°24' W 093°24'0 0.0
2016-Jun-13 02:33N 29°24' W 093°24'0 0.0
2016-Jun-13 01:33N 29°24' W 093°24'0 0.0
2016-Jun-13 00:31N 29°24' W 093°24'0 0.0
2016-Jun-12 23:32N 29°24' W 093°24'0 0.0
2016-Jun-12 22:33N 29°24' W 093°24'0 0.0
2016-Jun-12 21:30N 29°24' W 093°24'0 0.0
2016-Jun-12 20:30N 29°24' W 093°24'0 0.0
2016-Jun-12 19:33N 29°24' W 093°24'0 0.0
2016-Jun-12 18:29N 29°24' W 093°24'0 0.0
2016-Jun-12 17:32N 29°24' W 093°24'0 0.0
2016-Jun-12 16:32N 29°24' W 093°24'0 0.0
2016-Jun-12 15:33N 29°24' W 093°24'0 0.0
2016-Jun-12 14:33N 29°24' W 093°24'0 0.0
2016-Jun-12 13:33N 29°24' W 093°24'0 0.0
2016-Jun-12 12:33N 29°24' W 093°24'0 0.0
2016-Jun-12 11:27N 29°24' W 093°24'0 0.0
2016-Jun-12 10:33N 29°24' W 093°24'0 0.0
2016-Jun-12 09:32N 29°24' W 093°24'0 0.0
2016-Jun-12 08:33N 29°24' W 093°24'0 0.0
2016-Jun-12 07:33N 29°24' W 093°24'0 0.0
2016-Jun-12 06:33N 29°24' W 093°24'0 0.0
2016-Jun-12 04:33N 29°24' W 093°24'0 0.0
2016-Jun-12 03:33N 29°24' W 093°24'0 0.0
2016-Jun-12 02:33N 29°24' W 093°24'0 0.0
2016-Jun-12 01:33N 29°24' W 093°24'0 0.0
2016-Jun-12 00:33N 29°24' W 093°24'0 0.0
2016-Jun-11 23:33N 29°24' W 093°24'0 0.0
2016-Jun-11 22:33N 29°24' W 093°24'0 0.0
2016-Jun-11 21:31N 29°24' W 093°24'0 0.0
2016-Jun-11 20:30N 29°24' W 093°24'0 0.0
2016-Jun-11 19:31N 29°24' W 093°24'0 0.0
2016-Jun-11 19:00N 29°24' W 093°24'0 0.0
2016-Jun-11 18:33N 29°24' W 093°24'0 0.0
2016-Jun-11 17:33N 29°24' W 093°24'0 0.0
2016-Jun-11 16:33N 29°24' W 093°24'0 0.0
2016-Jun-11 15:33N 29°24' W 093°24'0 0.0
2016-Jun-11 14:29N 29°24' W 093°24'0 0.0
2016-Jun-11 13:33N 29°24' W 093°24'0 0.0
2016-Jun-11 12:33N 29°24' W 093°24'0 0.0
2016-Jun-11 11:32N 29°24' W 093°24'0 0.0
2016-Jun-11 10:33N 29°24' W 093°24'0 0.0
2016-Jun-11 09:33N 29°24' W 093°24'0 0.0
2016-Jun-11 08:31N 29°24' W 093°24'0 0.0
2016-Jun-11 07:32N 29°24' W 093°24'0 0.0
2016-Jun-11 06:31N 29°24' W 093°24'0 0.0
2016-Jun-11 05:31N 29°24' W 093°24'0 0.0
2016-Jun-11 04:33N 29°24' W 093°24'0 0.0
2016-Jun-11 03:33N 29°24' W 093°24'0 0.0
2016-Jun-11 02:33N 29°24' W 093°24'0 0.0
2016-Jun-11 01:33N 29°24' W 093°24'0 0.0
2016-Jun-11 00:33N 29°24' W 093°24'0 0.0
2016-Jun-10 23:33N 29°24' W 093°24'0 0.0
2016-Jun-10 22:33N 29°24' W 093°24'0 0.0
2016-Jun-10 21:30N 29°24' W 093°24'0 0.0
2016-Jun-10 20:33N 29°24' W 093°24'0 0.0
2016-Jun-10 19:33N 29°24' W 093°24'0 0.0
2016-Jun-10 18:33N 29°24' W 093°24'0 0.0
2016-Jun-10 17:33N 29°24' W 093°24'0 0.0
2016-Jun-10 16:32N 29°24' W 093°24'0 0.0
2016-Jun-10 15:32N 29°24' W 093°24'0 0.0
2016-Jun-10 14:33N 29°24' W 093°24'0 0.0
2016-Jun-10 13:33N 29°24' W 093°24'0 0.0
2016-Jun-10 12:33N 29°24' W 093°24'0 0.0
2016-Jun-10 11:31N 29°24' W 093°24'0 0.0
2016-Jun-10 10:32N 29°24' W 093°24'0 0.0
2016-Jun-10 09:33N 29°24' W 093°24'0 0.0
2016-Jun-10 08:33N 29°24' W 093°24'0 0.0
2016-Jun-10 07:33N 29°24' W 093°24'0 0.0
2016-Jun-10 06:33N 29°24' W 093°24'0 0.0
2016-Jun-10 05:33N 29°24' W 093°24'0 0.0
2016-Jun-10 04:33N 29°24' W 093°24'0 0.0
2016-Jun-10 03:33N 29°24' W 093°24'0 0.0
2016-Jun-10 02:33N 29°24' W 093°24'0 0.0
2016-Jun-10 01:32N 29°24' W 093°24'0 0.0
2016-Jun-10 00:33N 29°24' W 093°24'0 0.0
2016-Jun-09 23:32N 29°24' W 093°24'0 0.0
2016-Jun-09 22:33N 29°24' W 093°24'0 0.0
2016-Jun-09 21:33N 29°24' W 093°24'0 0.0
2016-Jun-09 20:33N 29°24' W 093°24'0 0.0
2016-Jun-09 19:33N 29°24' W 093°24'0 0.0
2016-Jun-09 18:34N 29°24' W 093°24'0 0.0
2016-Jun-09 17:32N 29°24' W 093°24'0 0.0
2016-Jun-09 16:33N 29°24' W 093°24'0 0.0
2016-Jun-08 14:33N 29°24' W 093°24'0 0.0
2016-Jun-08 13:33N 29°24' W 093°24'0 0.0
2016-Jun-08 12:33N 29°24' W 093°24'0 0.0
2016-Jun-08 11:32N 29°24' W 093°24'0 0.0
2016-Jun-08 10:31N 29°24' W 093°24'0 0.0
2016-Jun-08 09:33N 29°24' W 093°24'  

Dump ship's entire track history